Pembroke Pines, Florida
Current Conditions -  °F | °C
As of 4:53 PM on Friday 31 Oct 2014 (Local Time) from KHWO Reporting Station
Few Clouds Few Clouds  
Wind Chill: 85°   Ceiling: Unl
Heat Index: 87°   Visibility: 10mi
Dew Point: 65°   Wind: 9mph
Humidity: 51%   Direction: 260°W
Pressure: 29.78"   Gusts: NA
Location:  26.01°N, 80.28°W
Report Text: KHWO 312053Z 26008KT 10SM FEW046 FEW095 29/18 A2978 RMK AO2 SLP083 T02940183 56012
Loading
Personal Weather Stations






























Interactive Weather Map New forecast layout! Learn more

10-Day Weather Forecast

Advertisements
Track Severe Weather on mobile